Time;durP1;ratioP1;P1;durP2;ratioP2;P2;SDS_P1;SDS_P2;PMS_P1;PMS_P2;Temp;Humidity;BMP_temperature;BMP_pressure;BME280_temperature;BME280_humidity;BME280_pressure;Samples;Min_cycle;Max_cycle;Signal;HPM_P1;HPM_P2
2022/07/13 00:00:54;;;;;;;;;;;22.70;92.40;;;;;;4363956;32;43994;-81
2022/07/13 00:03:21;;;;;;;;;;;22.80;92.50;;;;;;4377046;32;44168;-81
2022/07/13 00:05:49;;;;;;;;;;;22.80;92.40;;;;;;4377203;32;44096;-80
2022/07/13 00:08:16;;;;;;;;;;;22.80;92.60;;;;;;4363639;32;43340;-81
2022/07/13 00:10:44;;;;;;;;;;;22.80;92.80;;;;;;4377442;32;44959;-81
2022/07/13 00:13:11;;;;;;;;;;;22.70;92.50;;;;;;4363914;32;44312;-82
2022/07/13 00:15:38;;;;;;;;;;;22.80;92.60;;;;;;4377520;32;44242;-80
2022/07/13 00:18:05;;;;;;;;;;;22.70;92.50;;;;;;4377118;32;44183;-81
2022/07/13 00:20:32;;;;;;;;;;;22.70;92.50;;;;;;4363715;32;42883;-81
2022/07/13 00:22:59;;;;;;;;;;;22.70;92.70;;;;;;4376904;32;44227;-82
2022/07/13 00:25:26;;;;;;;;;;;22.70;92.90;;;;;;4376925;32;45872;-81
2022/07/13 00:27:53;;;;;;;;;;;22.70;92.70;;;;;;4363876;32;43878;-81
2022/07/13 00:30:20;;;;;;;;;;;22.70;92.60;;;;;;4376833;32;44251;-80
2022/07/13 00:32:47;;;;;;;;;;;22.70;92.60;;;;;;4363248;32;46018;-80
2022/07/13 00:39:08;;;;;;;;;;;22.70;92.70;;;;;;4377373;32;43315;-82
2022/07/13 00:41:35;;;;;;;;;;;22.70;92.50;;;;;;4363230;32;43898;-78
2022/07/13 00:44:06;;;;;;;;;;;22.70;92.60;;;;;;4377152;32;43880;-79
2022/07/13 00:46:33;;;;;;;;;;;22.70;92.60;;;;;;4376546;32;42581;-81
2022/07/13 00:49:01;;;;;;;;;;;22.70;92.80;;;;;;4363616;32;43195;-81
2022/07/13 00:51:28;;;;;;;;;;;22.70;92.90;;;;;;4363238;32;43027;-81
2022/07/13 00:53:55;;;;;;;;;;;22.70;92.70;;;;;;4363116;32;44163;-80
2022/07/13 00:56:24;;;;;;;;;;;22.70;92.50;;;;;;4363585;32;43853;-80
2022/07/13 00:58:53;;;;;;;;;;;22.70;92.80;;;;;;4362387;32;44935;-78
2022/07/13 01:01:21;;;;;;;;;;;22.70;92.70;;;;;;4376561;32;44195;-81
2022/07/13 01:03:48;;;;;;;;;;;22.70;92.90;;;;;;4363515;32;43382;-80
2022/07/13 01:06:16;;;;;;;;;;;22.70;92.70;;;;;;4376723;32;45081;-82
2022/07/13 01:08:43;;;;;;;;;;;22.70;92.80;;;;;;4363178;32;43892;-80
2022/07/13 01:11:10;;;;;;;;;;;22.70;92.80;;;;;;4376642;32;44219;-79
2022/07/13 01:13:38;;;;;;;;;;;22.70;92.80;;;;;;4363238;32;43470;-81
2022/07/13 01:16:05;;;;;;;;;;;22.70;92.80;;;;;;4376348;32;44068;-81
2022/07/13 01:18:33;;;;;;;;;;;22.70;93.00;;;;;;4362776;32;44315;-83
2022/07/13 01:21:03;;;;;;;;;;;22.70;92.60;;;;;;4376348;32;43828;-80
2022/07/13 01:23:30;;;;;;;;;;;22.60;93.10;;;;;;4377092;32;23610;-80
2022/07/13 01:25:57;;;;;;;;;;;22.60;92.50;;;;;;4376029;32;42785;-80
2022/07/13 01:28:25;;;;;;;;;;;22.70;92.90;;;;;;4362466;32;43404;-79
2022/07/13 01:30:52;;;;;;;;;;;22.60;92.90;;;;;;4362598;32;42683;-81
2022/07/13 01:33:19;;;;;;;;;;;22.60;92.80;;;;;;4362486;32;43494;-79
2022/07/13 01:35:46;;;;;;;;;;;22.60;93.10;;;;;;4376534;32;43951;-79
2022/07/13 01:38:13;;;;;;;;;;;22.60;92.70;;;;;;4375981;32;43855;-78
2022/07/13 01:40:43;;;;;;;;;;;22.60;92.90;;;;;;4376276;32;45445;-82
2022/07/13 01:43:10;;;;;;;;;;;22.60;92.90;;;;;;4376252;32;44094;-80
2022/07/13 01:45:37;;;;;;;;;;;22.60;93.20;;;;;;4375918;32;42930;-80
2022/07/13 01:48:04;;;;;;;;;;;22.60;93.20;;;;;;4375759;32;43638;-77
2022/07/13 01:50:31;;;;;;;;;;;22.60;93.10;;;;;;4375660;32;42683;-78
2022/07/13 01:52:58;;;;;;;;;;;22.60;92.70;;;;;;4376075;32;43845;-79
2022/07/13 01:55:25;;;;;;;;;;;22.60;92.60;;;;;;4376017;32;44433;-80
2022/07/13 01:57:59;;;;;;;;;;;22.60;92.60;;;;;;4362406;32;42827;-79
2022/07/13 02:00:27;;;;;;;;;;;22.60;92.50;;;;;;4362503;32;43946;-78
2022/07/13 02:02:54;;;;;;;;;;;22.60;92.70;;;;;;4375643;32;42567;-76
2022/07/13 02:05:25;;;;;;;;;;;22.50;92.30;;;;;;4362223;32;43604;-80
2022/07/13 02:07:52;;;;;;;;;;;22.50;92.80;;;;;;4375459;32;42831;-80
2022/07/13 02:10:19;;;;;;;;;;;22.50;92.30;;;;;;4374671;32;43141;-80
2022/07/13 02:12:46;;;;;;;;;;;22.50;92.50;;;;;;4362409;32;43181;-80
2022/07/13 02:15:13;;;;;;;;;;;22.50;92.80;;;;;;4375815;32;44184;-80
2022/07/13 02:17:41;;;;;;;;;;;22.50;92.50;;;;;;4362198;32;43467;-80
2022/07/13 02:20:08;;;;;;;;;;;22.50;92.70;;;;;;4375601;32;43014;-80
2022/07/13 02:22:42;;;;;;;;;;;22.50;92.90;;;;;;4375734;32;43513;-79
2022/07/13 02:25:10;;;;;;;;;;;22.50;92.80;;;;;;4361766;32;42853;-80
2022/07/13 02:27:37;;;;;;;;;;;22.50;92.70;;;;;;4375009;32;43675;-80
2022/07/13 02:30:05;;;;;;;;;;;22.50;92.60;;;;;;4375774;32;43942;-81
2022/07/13 02:32:32;;;;;;;;;;;22.50;92.70;;;;;;4375180;32;44250;-80
2022/07/13 02:34:59;;;;;;;;;;;22.50;93.10;;;;;;4375477;32;43068;-78
2022/07/13 02:37:26;;;;;;;;;;;22.50;93.00;;;;;;4375439;32;42884;-80
2022/07/13 02:39:55;;;;;;;;;;;22.50;92.90;;;;;;4361616;32;44133;-78
2022/07/13 02:42:23;;;;;;;;;;;22.50;92.60;;;;;;4374945;32;44195;-80
2022/07/13 02:44:50;;;;;;;;;;;22.50;92.60;;;;;;4374916;32;44200;-80
2022/07/13 02:47:17;;;;;;;;;;;22.40;92.70;;;;;;4375426;32;43196;-79
2022/07/13 02:49:44;;;;;;;;;;;22.40;92.60;;;;;;4375256;32;44082;-82
2022/07/13 02:52:11;;;;;;;;;;;22.40;92.60;;;;;;4375229;32;44266;-80
2022/07/13 02:54:39;;;;;;;;;;;22.40;92.80;;;;;;4361483;32;44003;-79
2022/07/13 02:57:06;;;;;;;;;;;22.40;92.80;;;;;;4361622;32;43726;-80
2022/07/13 02:59:35;;;;;;;;;;;22.40;92.90;;;;;;4375284;32;44024;-80
2022/07/13 03:02:05;;;;;;;;;;;22.40;93.20;;;;;;4374733;32;44382;-79
2022/07/13 03:04:33;;;;;;;;;;;22.40;92.80;;;;;;4361168;32;42957;-80
2022/07/13 03:07:00;;;;;;;;;;;22.40;92.80;;;;;;4361207;32;43304;-80
2022/07/13 03:09:27;;;;;;;;;;;22.40;92.90;;;;;;4361377;32;42629;-77
2022/07/13 03:11:54;;;;;;;;;;;22.40;93.00;;;;;;4375231;32;43831;-82
2022/07/13 03:14:22;;;;;;;;;;;22.40;92.90;;;;;;4361701;32;43924;-79
2022/07/13 03:16:49;;;;;;;;;;;22.40;93.50;;;;;;4374933;32;44472;-77
2022/07/13 03:19:16;;;;;;;;;;;22.40;93.10;;;;;;4375065;32;44223;-79
2022/07/13 03:21:43;;;;;;;;;;;22.40;93.10;;;;;;4360993;32;43569;-79
2022/07/13 03:24:10;;;;;;;;;;;22.40;92.70;;;;;;4375738;32;20061;-80
2022/07/13 03:26:37;;;;;;;;;;;22.40;92.70;;;;;;4374697;32;44160;-77
2022/07/13 03:29:05;;;;;;;;;;;22.30;93.00;;;;;;4375196;32;29311;-79
2022/07/13 03:31:32;;;;;;;;;;;22.40;92.70;;;;;;4361066;32;43262;-79
2022/07/13 03:33:59;;;;;;;;;;;22.30;92.60;;;;;;4361432;32;43339;-79
2022/07/13 03:36:26;;;;;;;;;;;22.30;92.80;;;;;;4374611;32;43799;-79
2022/07/13 03:38:53;;;;;;;;;;;22.30;92.80;;;;;;4361230;32;44785;-80
2022/07/13 03:41:20;;;;;;;;;;;22.30;92.80;;;;;;4374516;32;43224;-80
2022/07/13 03:43:47;;;;;;;;;;;22.30;92.50;;;;;;4374392;32;43706;-78
2022/07/13 03:46:14;;;;;;;;;;;22.30;92.50;;;;;;4361115;32;43024;-80
2022/07/13 03:48:41;;;;;;;;;;;22.30;92.60;;;;;;4374782;32;44336;-79
2022/07/13 03:51:08;;;;;;;;;;;22.30;92.50;;;;;;4360929;32;42725;-80
2022/07/13 03:53:35;;;;;;;;;;;22.30;92.70;;;;;;4374348;32;42665;-79
2022/07/13 03:56:03;;;;;;;;;;;22.30;92.40;;;;;;4360840;32;42779;-80
2022/07/13 03:58:30;;;;;;;;;;;22.30;92.80;;;;;;4361152;32;43686;-80
2022/07/13 04:00:57;;;;;;;;;;;22.30;92.60;;;;;;4374722;32;43904;-82
2022/07/13 04:03:24;;;;;;;;;;;22.30;92.50;;;;;;4374296;32;44213;-81
2022/07/13 04:05:52;;;;;;;;;;;22.30;92.50;;;;;;4374417;32;44149;-83
2022/07/13 04:08:19;;;;;;;;;;;22.30;92.40;;;;;;4360903;32;42180;-81
2022/07/13 04:10:46;;;;;;;;;;;22.30;92.30;;;;;;4374576;32;44025;-79
2022/07/13 04:13:13;;;;;;;;;;;22.30;92.70;;;;;;4361138;32;44024;-77
2022/07/13 04:15:41;;;;;;;;;;;22.30;92.40;;;;;;4360780;32;42265;-81
2022/07/13 04:18:08;;;;;;;;;;;22.30;92.60;;;;;;4360909;32;43749;-80
2022/07/13 04:20:35;;;;;;;;;;;22.30;92.40;;;;;;4360900;32;44112;-82
2022/07/13 04:23:02;;;;;;;;;;;22.30;92.20;;;;;;4374386;32;42684;-80
2022/07/13 04:25:29;;;;;;;;;;;22.30;92.40;;;;;;4361238;32;43828;-82
2022/07/13 04:27:56;;;;;;;;;;;22.30;92.40;;;;;;4374461;32;44229;-78
2022/07/13 04:30:23;;;;;;;;;;;22.30;92.60;;;;;;4374094;32;42936;-81
2022/07/13 04:32:50;;;;;;;;;;;22.30;92.50;;;;;;4362210;32;44987;-81
2022/07/13 04:35:18;;;;;;;;;;;22.30;92.70;;;;;;4363377;32;43935;-80
2022/07/13 04:37:45;;;;;;;;;;;22.30;92.80;;;;;;4377004;32;43623;-81
2022/07/13 04:40:12;;;;;;;;;;;22.30;92.60;;;;;;4376716;32;43929;-82
2022/07/13 04:42:39;;;;;;;;;;;22.20;92.70;;;;;;4363566;32;43035;-81
2022/07/13 04:45:07;;;;;;;;;;;22.30;92.40;;;;;;4376400;32;44656;-81
2022/07/13 04:47:34;;;;;;;;;;;22.20;92.50;;;;;;4376718;32;43160;-82
2022/07/13 04:50:01;;;;;;;;;;;22.30;92.50;;;;;;4363134;32;42622;-81
2022/07/13 04:52:28;;;;;;;;;;;22.30;92.70;;;;;;4363319;32;43823;-80
2022/07/13 04:54:55;;;;;;;;;;;22.30;92.70;;;;;;4376946;32;44820;-80
2022/07/13 04:57:22;;;;;;;;;;;22.30;92.60;;;;;;4376526;32;43248;-80
2022/07/13 04:59:49;;;;;;;;;;;22.30;92.40;;;;;;4376354;32;42894;-81
2022/07/13 05:02:16;;;;;;;;;;;22.30;92.70;;;;;;4363132;32;43327;-81
2022/07/13 05:04:43;;;;;;;;;;;22.30;92.70;;;;;;4376052;32;44918;-79
2022/07/13 05:07:11;;;;;;;;;;;22.30;92.80;;;;;;4376601;32;43211;-79
2022/07/13 05:09:38;;;;;;;;;;;22.30;92.80;;;;;;4376157;32;44179;-80
2022/07/13 05:12:05;;;;;;;;;;;22.30;92.80;;;;;;4362605;32;42485;-81
2022/07/13 05:14:32;;;;;;;;;;;22.30;93.10;;;;;;4376147;32;43242;-81
2022/07/13 05:16:59;;;;;;;;;;;22.30;92.90;;;;;;4376121;32;44144;-81
2022/07/13 05:19:26;;;;;;;;;;;22.30;92.80;;;;;;4362997;32;43305;-80
2022/07/13 05:21:53;;;;;;;;;;;22.30;93.10;;;;;;4376323;32;43356;-77
2022/07/13 05:24:21;;;;;;;;;;;22.30;93.10;;;;;;4363309;32;26905;-80
2022/07/13 05:26:48;;;;;;;;;;;22.30;92.80;;;;;;4375818;32;44335;-78
2022/07/13 05:29:15;;;;;;;;;;;22.30;93.00;;;;;;4375848;32;42727;-80
2022/07/13 05:31:42;;;;;;;;;;;22.30;92.70;;;;;;4376049;32;42867;-79
2022/07/13 05:34:09;;;;;;;;;;;22.30;93.10;;;;;;4362707;32;43013;-79
2022/07/13 05:36:36;;;;;;;;;;;22.30;92.90;;;;;;4375972;32;42045;-80
2022/07/13 05:39:04;;;;;;;;;;;22.30;92.90;;;;;;4376379;32;43827;-79
2022/07/13 05:41:32;;;;;;;;;;;22.30;92.90;;;;;;4362524;32;43259;-80
2022/07/13 05:43:59;;;;;;;;;;;22.30;92.90;;;;;;4375771;32;44207;-79
2022/07/13 05:46:27;;;;;;;;;;;22.30;93.10;;;;;;4375962;32;44004;-78
2022/07/13 05:48:54;;;;;;;;;;;22.30;93.10;;;;;;4376044;32;43890;-80
2022/07/13 05:51:22;;;;;;;;;;;22.30;93.10;;;;;;4375588;32;45006;-80
2022/07/13 05:54:00;;;;;;;;;;;22.30;92.90;;;;;;4364082;32;43917;-81
2022/07/13 05:56:48;;;;;;;;;;;22.30;93.20;;;;;;4364885;32;46363;-80
2022/07/13 05:59:15;;;;;;;;;;;22.30;92.90;;;;;;4362469;32;44142;-79
2022/07/13 06:01:42;;;;;;;;;;;22.30;92.90;;;;;;4375602;32;44191;-81
2022/07/13 06:04:10;;;;;;;;;;;22.30;92.90;;;;;;4375885;32;44107;-80
2022/07/13 06:06:39;;;;;;;;;;;22.30;93.00;;;;;;4362792;32;42428;-80
2022/07/13 06:09:07;;;;;;;;;;;22.30;92.90;;;;;;4376796;32;19993;-80
2022/07/13 06:11:34;;;;;;;;;;;22.30;92.90;;;;;;4375357;32;42883;-82
2022/07/13 06:14:04;;;;;;;;;;;22.30;93.10;;;;;;4375938;32;44054;-80
2022/07/13 06:16:31;;;;;;;;;;;22.30;92.60;;;;;;4375812;32;44250;-81
2022/07/13 06:18:58;;;;;;;;;;;22.30;92.60;;;;;;4375249;32;43079;-81
2022/07/13 06:21:25;;;;;;;;;;;22.30;92.70;;;;;;4361864;32;43957;-80
2022/07/13 06:23:52;;;;;;;;;;;22.30;92.70;;;;;;4362104;32;43970;-79
2022/07/13 06:26:19;;;;;;;;;;;22.30;92.60;;;;;;4375738;32;43944;-80
2022/07/13 06:28:46;;;;;;;;;;;22.30;92.40;;;;;;4375018;32;45797;-80
2022/07/13 06:31:21;;;;;;;;;;;22.30;92.20;;;;;;4375725;32;43898;-80
2022/07/13 06:33:51;;;;;;;;;;;22.40;92.20;;;;;;4375471;32;43499;-77
2022/07/13 06:36:18;;;;;;;;;;;22.30;92.20;;;;;;4375140;32;43122;-82
2022/07/13 06:38:46;;;;;;;;;;;22.30;92.20;;;;;;4375110;32;46018;-78
2022/07/13 06:41:13;;;;;;;;;;;22.40;92.30;;;;;;4362008;32;44002;-80
2022/07/13 06:43:40;;;;;;;;;;;22.40;92.00;;;;;;4361958;32;43192;-77
2022/07/13 06:46:08;;;;;;;;;;;22.40;92.00;;;;;;4374849;32;43578;-80
2022/07/13 06:48:35;;;;;;;;;;;22.40;92.00;;;;;;4361431;32;43061;-80
2022/07/13 06:51:03;;;;;;;;;;;22.40;92.10;;;;;;4375437;32;43863;-79
2022/07/13 06:53:30;;;;;;;;;;;22.40;92.00;;;;;;4375361;32;44085;-79
2022/07/13 06:55:57;;;;;;;;;;;22.40;92.00;;;;;;4374774;32;43174;-79
2022/07/13 06:58:24;;;;;;;;;;;22.40;91.80;;;;;;4375342;32;43450;-78
2022/07/13 07:00:51;;;;;;;;;;;22.40;91.80;;;;;;4375132;32;44795;-79
2022/07/13 07:03:19;;;;;;;;;;;22.40;91.80;;;;;;4361426;32;43515;-81
2022/07/13 07:05:46;;;;;;;;;;;22.50;91.80;;;;;;4361415;32;42321;-79
2022/07/13 07:08:13;;;;;;;;;;;22.50;91.80;;;;;;4375115;32;43636;-78
2022/07/13 07:10:40;;;;;;;;;;;22.50;91.70;;;;;;4361586;32;43915;-78
2022/07/13 07:13:08;;;;;;;;;;;22.50;91.60;;;;;;4361787;32;43949;-78
2022/07/13 07:15:35;;;;;;;;;;;22.50;91.60;;;;;;4374954;32;44992;-80
2022/07/13 07:18:03;;;;;;;;;;;22.50;91.60;;;;;;4374716;32;43458;-77
2022/07/13 07:20:35;;;;;;;;;;;22.60;91.60;;;;;;4375258;32;42784;-78
2022/07/13 07:23:03;;;;;;;;;;;22.50;91.70;;;;;;4375134;32;43912;-78
2022/07/13 07:25:30;;;;;;;;;;;22.50;91.90;;;;;;4374884;32;42989;-80
2022/07/13 07:27:58;;;;;;;;;;;22.50;91.50;;;;;;4375065;32;44227;-77
2022/07/13 07:30:25;;;;;;;;;;;22.60;91.70;;;;;;4374477;32;44251;-78
2022/07/13 07:32:52;;;;;;;;;;;22.60;91.70;;;;;;4361000;32;42570;-78
2022/07/13 07:35:20;;;;;;;;;;;22.60;91.80;;;;;;4374590;32;43813;-80
2022/07/13 07:37:47;;;;;;;;;;;22.60;91.80;;;;;;4374403;32;44466;-80
2022/07/13 07:40:14;;;;;;;;;;;22.60;91.70;;;;;;4374568;32;41962;-80
2022/07/13 07:42:43;;;;;;;;;;;22.60;91.90;;;;;;4374765;32;42525;-78
2022/07/13 07:45:10;;;;;;;;;;;22.60;92.00;;;;;;4361020;32;44215;-77
2022/07/13 07:47:38;;;;;;;;;;;22.60;91.80;;;;;;4374612;32;43850;-77
2022/07/13 07:50:06;;;;;;;;;;;22.60;91.70;;;;;;4375201;32;43926;-78
2022/07/13 07:52:33;;;;;;;;;;;22.70;92.00;;;;;;4361354;32;42551;-79
2022/07/13 07:55:20;;;;;;;;;;;22.70;92.00;;;;;;4363687;32;43465;-80
2022/07/13 07:57:49;;;;;;;;;;;22.70;92.20;;;;;;4374264;32;44360;-77
2022/07/13 08:00:17;;;;;;;;;;;22.70;91.60;;;;;;4374374;32;42680;-80
2022/07/13 08:02:44;;;;;;;;;;;22.70;91.90;;;;;;4374479;32;44003;-77
2022/07/13 08:05:11;;;;;;;;;;;22.70;91.80;;;;;;4374246;32;44283;-83
2022/07/13 08:07:39;;;;;;;;;;;22.70;91.50;;;;;;4362869;32;43493;-81
2022/07/13 08:10:07;;;;;;;;;;;22.80;91.60;;;;;;4377544;32;44608;-81
2022/07/13 08:12:53;;;;;;;;;;;22.80;91.50;;;;;;4366158;32;43275;-77
2022/07/13 08:15:22;;;;;;;;;;;22.80;91.10;;;;;;4377489;32;43881;-79
2022/07/13 08:17:49;;;;;;;;;;;22.80;91.30;;;;;;4363977;32;42701;-80
2022/07/13 08:20:16;;;;;;;;;;;22.80;91.20;;;;;;4364158;32;42931;-80
2022/07/13 08:22:49;;;;;;;;;;;22.90;91.50;;;;;;4364238;32;43745;-79
2022/07/13 08:25:16;;;;;;;;;;;22.90;91.30;;;;;;4377687;32;20025;-80
2022/07/13 08:27:44;;;;;;;;;;;22.90;91.60;;;;;;4363686;32;43354;-80
2022/07/13 08:30:11;;;;;;;;;;;22.90;91.30;;;;;;4377229;32;43345;-79
2022/07/13 08:32:39;;;;;;;;;;;22.90;91.60;;;;;;4376830;32;42116;-80
2022/07/13 08:40:41;;;;;;;;;;;23.00;91.60;;;;;;4376790;32;44150;-80
2022/07/13 08:43:09;;;;;;;;;;;23.00;91.70;;;;;;4363788;32;42949;-78
2022/07/13 08:45:36;;;;;;;;;;;23.00;91.30;;;;;;4377155;32;43153;-81
2022/07/13 08:48:12;;;;;;;;;;;23.00;91.30;;;;;;4363231;32;42836;-77
2022/07/13 08:50:39;;;;;;;;;;;23.00;91.30;;;;;;4363718;32;43202;-81
2022/07/13 08:53:06;;;;;;;;;;;23.00;90.90;;;;;;4363444;32;42845;-77
2022/07/13 08:55:35;;;;;;;;;;;23.00;91.20;;;;;;4377907;32;20097;-80
2022/07/13 08:58:02;;;;;;;;;;;23.10;91.20;;;;;;4376946;32;43882;-80
2022/07/13 09:00:30;;;;;;;;;;;23.10;91.00;;;;;;4376686;32;43027;-80
2022/07/13 09:02:58;;;;;;;;;;;23.10;90.80;;;;;;4376546;32;46034;-82
2022/07/13 09:05:25;;;;;;;;;;;23.10;90.70;;;;;;4376911;32;43044;-80
2022/07/13 09:08:03;;;;;;;;;;;23.10;90.70;;;;;;4363227;32;43233;-81
2022/07/13 09:10:30;;;;;;;;;;;23.10;90.40;;;;;;4376711;32;44957;-78
2022/07/13 09:12:57;;;;;;;;;;;23.10;90.30;;;;;;4376478;32;44462;-77
2022/07/13 09:15:31;;;;;;;;;;;23.10;90.40;;;;;;4363879;32;44597;-80
2022/07/13 09:17:59;;;;;;;;;;;23.20;90.30;;;;;;4362798;32;43450;-79
2022/07/13 09:20:26;;;;;;;;;;;23.10;90.10;;;;;;4376426;32;46326;-79
2022/07/13 09:23:05;;;;;;;;;;;23.20;90.00;;;;;;4376585;32;42741;-80
2022/07/13 09:25:37;;;;;;;;;;;23.20;90.30;;;;;;4362762;32;42856;-79
2022/07/13 09:28:05;;;;;;;;;;;23.20;89.90;;;;;;4362584;32;44362;-80
2022/07/13 09:30:32;;;;;;;;;;;23.20;90.00;;;;;;4363143;32;43852;-79
2022/07/13 09:33:00;;;;;;;;;;;23.20;90.10;;;;;;4363178;32;45735;-80
2022/07/13 09:35:53;;;;;;;;;;;23.20;90.00;;;;;;4375964;32;43413;-80
2022/07/13 09:38:27;;;;;;;;;;;23.20;89.70;;;;;;4373046;32;43045;-79
2022/07/13 09:40:54;;;;;;;;;;;23.20;90.00;;;;;;4362557;32;43831;-82
2022/07/13 09:46:10;;;;;;;;;;;23.20;88.90;;;;;;4376291;32;44339;-77
2022/07/13 09:48:38;;;;;;;;;;;23.20;89.40;;;;;;4362499;32;43466;-80
2022/07/13 09:51:05;;;;;;;;;;;23.30;89.10;;;;;;4362763;32;43486;-80
2022/07/13 09:53:33;;;;;;;;;;;23.30;89.00;;;;;;4376303;32;43272;-79
2022/07/13 09:56:01;;;;;;;;;;;23.30;89.00;;;;;;4362760;32;43320;-80
2022/07/13 09:58:29;;;;;;;;;;;23.30;88.90;;;;;;4362568;32;43482;-78
2022/07/13 10:00:58;;;;;;;;;;;23.30;88.30;;;;;;4375543;32;43412;-78
2022/07/13 10:03:26;;;;;;;;;;;23.30;87.80;;;;;;4362217;32;43700;-83
2022/07/13 10:05:56;;;;;;;;;;;23.30;87.90;;;;;;4375769;32;43265;-79
2022/07/13 10:08:24;;;;;;;;;;;23.30;87.60;;;;;;4362610;32;43216;-79
2022/07/13 10:10:52;;;;;;;;;;;23.40;88.30;;;;;;4362523;32;43303;-77
2022/07/13 10:13:20;;;;;;;;;;;23.40;88.60;;;;;;4375847;32;44177;-77
2022/07/13 10:15:48;;;;;;;;;;;23.40;89.00;;;;;;4375720;32;46021;-81
2022/07/13 10:18:27;;;;;;;;;;;23.40;89.10;;;;;;4362102;32;44245;-79
2022/07/13 10:21:20;;;;;;;;;;;23.40;88.90;;;;;;4375853;32;42172;-79
2022/07/13 10:23:47;;;;;;;;;;;23.40;89.30;;;;;;4334223;32;43646;-80
2022/07/13 10:26:22;;;;;;;;;;;23.50;89.20;;;;;;4361685;32;44247;-79
2022/07/13 10:29:09;;;;;;;;;;;23.50;89.10;;;;;;4361893;32;43314;-79
2022/07/13 10:31:37;;;;;;;;;;;23.50;88.70;;;;;;4375131;32;42741;-78
2022/07/13 10:34:08;;;;;;;;;;;23.50;88.80;;;;;;4362540;32;43508;-79
2022/07/13 10:36:48;;;;;;;;;;;23.60;88.30;;;;;;4375867;32;44248;-80
2022/07/13 10:39:16;;;;;;;;;;;23.50;88.20;;;;;;4375028;32;43054;-79
2022/07/13 10:42:03;;;;;;;;;;;23.60;88.50;;;;;;4362593;32;26500;-78
2022/07/13 10:44:33;;;;;;;;;;;23.60;88.60;;;;;;4374955;32;42611;-80
2022/07/13 10:47:00;;;;;;;;;;;23.60;88.90;;;;;;4362016;32;43214;-80
2022/07/13 10:49:30;;;;;;;;;;;23.60;89.20;;;;;;4374848;32;45046;-78
2022/07/13 10:52:16;;;;;;;;;;;23.60;89.00;;;;;;4375483;32;43232;-78
2022/07/13 10:55:07;;;;;;;;;;;23.60;88.70;;;;;;4363314;32;44212;-77
2022/07/13 10:57:36;;;;;;;;;;;23.70;89.20;;;;;;4376647;32;20075;-78
2022/07/13 11:00:04;;;;;;;;;;;23.70;89.50;;;;;;4375439;32;44229;-78
2022/07/13 11:02:50;;;;;;;;;;;23.70;89.80;;;;;;4361051;32;44681;-79
2022/07/13 11:05:19;;;;;;;;;;;23.70;89.90;;;;;;4375172;32;44238;-78
2022/07/13 11:07:48;;;;;;;;;;;23.70;89.00;;;;;;4374651;32;42718;-78
2022/07/13 11:10:18;;;;;;;;;;;23.70;89.20;;;;;;4374770;32;43087;-77
2022/07/13 11:12:54;;;;;;;;;;;23.70;90.30;;;;;;4375392;32;43845;-78
2022/07/13 11:15:24;;;;;;;;;;;23.80;90.20;;;;;;4361624;32;44262;-77
2022/07/13 11:17:54;;;;;;;;;;;23.80;90.20;;;;;;4361541;32;43844;-80
2022/07/13 11:20:32;;;;;;;;;;;23.80;90.10;;;;;;4374751;32;43008;-78
2022/07/13 11:25:48;;;;;;;;;;;23.90;90.30;;;;;;4375262;32;43224;-81
2022/07/13 11:28:25;;;;;;;;;;;23.90;90.50;;;;;;4375720;32;20470;-79
2022/07/13 11:30:54;;;;;;;;;;;24.00;90.40;;;;;;4375104;32;43860;-81
2022/07/13 11:33:22;;;;;;;;;;;24.00;90.80;;;;;;4374904;32;43999;-81
2022/07/13 11:35:49;;;;;;;;;;;24.00;90.60;;;;;;4361634;32;44215;-78
2022/07/13 11:38:19;;;;;;;;;;;24.00;90.60;;;;;;4374752;32;43475;-79
2022/07/13 11:40:47;;;;;;;;;;;24.00;90.70;;;;;;4374828;32;43887;-77
2022/07/13 11:43:14;;;;;;;;;;;24.00;90.60;;;;;;4377838;32;45698;-76
2022/07/13 11:45:42;;;;;;;;;;;24.10;90.80;;;;;;4364291;32;43502;-77
2022/07/13 11:48:13;;;;;;;;;;;24.10;90.70;;;;;;4363949;32;43400;-79
2022/07/13 11:50:40;;;;;;;;;;;24.10;91.00;;;;;;4377994;32;44173;-83
2022/07/13 11:53:07;;;;;;;;;;;24.10;91.00;;;;;;4377882;32;43621;-77
2022/07/13 11:55:35;;;;;;;;;;;24.20;90.90;;;;;;4377339;32;43020;-77
2022/07/13 11:58:05;;;;;;;;;;;24.20;90.90;;;;;;4377355;32;44086;-78
2022/07/13 12:00:32;;;;;;;;;;;24.20;90.90;;;;;;4363822;32;44522;-82
2022/07/13 12:02:59;;;;;;;;;;;24.20;90.80;;;;;;4363855;32;43478;-80
2022/07/13 12:05:28;;;;;;;;;;;24.30;90.70;;;;;;4377489;32;44810;-77
2022/07/13 12:08:05;;;;;;;;;;;24.30;90.80;;;;;;4364248;32;43993;-77
2022/07/13 12:10:35;;;;;;;;;;;24.30;91.00;;;;;;4377187;32;43243;-78
2022/07/13 12:13:03;;;;;;;;;;;24.30;91.00;;;;;;4377516;32;45248;-79
2022/07/13 12:15:30;;;;;;;;;;;24.30;91.00;;;;;;4364080;32;43687;-78
2022/07/13 12:18:02;;;;;;;;;;;24.40;91.00;;;;;;4363523;32;44709;-77
2022/07/13 12:20:31;;;;;;;;;;;24.40;91.00;;;;;;4364033;32;43486;-77
2022/07/13 12:22:59;;;;;;;;;;;24.40;91.10;;;;;;4377340;32;44243;-77
2022/07/13 12:25:29;;;;;;;;;;;24.50;90.80;;;;;;4377422;32;44167;-80
2022/07/13 12:27:59;;;;;;;;;;;24.50;90.90;;;;;;4377019;32;44032;-79
2022/07/13 12:30:27;;;;;;;;;;;24.50;91.00;;;;;;4363531;32;44171;-78
2022/07/13 12:33:16;;;;;;;;;;;24.50;91.00;;;;;;4377279;32;43044;-78
2022/07/13 12:35:44;;;;;;;;;;;24.60;91.10;;;;;;4362645;32;42083;-78
2022/07/13 12:38:12;;;;;;;;;;;24.60;91.00;;;;;;4363269;32;44105;-80
2022/07/13 12:40:52;;;;;;;;;;;24.60;91.20;;;;;;4377013;32;42914;-77
2022/07/13 12:43:29;;;;;;;;;;;24.60;91.10;;;;;;4377274;32;44099;-79
2022/07/13 12:45:58;;;;;;;;;;;24.70;91.10;;;;;;4377141;32;42627;-77
2022/07/13 12:48:25;;;;;;;;;;;24.70;90.90;;;;;;4376840;32;43332;-78
2022/07/13 12:51:13;;;;;;;;;;;24.70;91.00;;;;;;4376596;32;43750;-80
2022/07/13 12:53:52;;;;;;;;;;;24.70;90.90;;;;;;4376219;32;42843;-80
2022/07/13 12:56:20;;;;;;;;;;;24.70;90.90;;;;;;4376929;32;43037;-82
2022/07/13 12:58:47;;;;;;;;;;;24.80;91.00;;;;;;4377256;32;44214;-77
2022/07/13 13:01:28;;;;;;;;;;;24.80;91.10;;;;;;4363112;32;44124;-79
2022/07/13 13:03:55;;;;;;;;;;;24.80;91.10;;;;;;4377108;32;43189;-80
2022/07/13 13:06:30;;;;;;;;;;;24.90;90.90;;;;;;4376817;32;44829;-80
2022/07/13 13:09:14;;;;;;;;;;;24.90;90.80;;;;;;4376162;32;43613;-79
2022/07/13 13:11:41;;;;;;;;;;;24.90;90.80;;;;;;4363276;32;44369;-80
2022/07/13 13:14:09;;;;;;;;;;;25.00;91.00;;;;;;4362895;32;43945;-81
2022/07/13 13:16:36;;;;;;;;;;;25.00;91.20;;;;;;4376606;32;45758;-80
2022/07/13 13:19:03;;;;;;;;;;;25.00;91.50;;;;;;4363197;32;43903;-80
2022/07/13 13:21:30;;;;;;;;;;;25.00;91.10;;;;;;4362765;32;43458;-78
2022/07/13 13:23:58;;;;;;;;;;;25.10;91.10;;;;;;4376112;32;43845;-78
2022/07/13 13:26:25;;;;;;;;;;;25.10;91.10;;;;;;4376671;32;43267;-78
2022/07/13 13:31:50;;;;;;;;;;;25.20;91.20;;;;;;4376477;32;43517;-82
2022/07/13 13:34:17;;;;;;;;;;;25.20;91.10;;;;;;4362571;32;43916;-77
2022/07/13 13:36:47;;;;;;;;;;;25.20;90.90;;;;;;4375947;32;43276;-80
2022/07/13 13:39:14;;;;;;;;;;;25.30;91.00;;;;;;4362973;32;43853;-79
2022/07/13 13:41:41;;;;;;;;;;;25.30;91.00;;;;;;4362957;32;43314;-78
2022/07/13 13:44:08;;;;;;;;;;;25.30;90.80;;;;;;4376144;32;44082;-81
2022/07/13 13:46:35;;;;;;;;;;;25.30;90.50;;;;;;4376184;32;44446;-79
2022/07/13 13:49:03;;;;;;;;;;;25.30;90.60;;;;;;4362320;32;43495;-81
2022/07/13 13:51:30;;;;;;;;;;;25.30;90.60;;;;;;4362872;32;43473;-79
2022/07/13 13:54:17;;;;;;;;;;;25.30;90.80;;;;;;4376095;32;45318;-78
2022/07/13 13:56:44;;;;;;;;;;;25.30;91.00;;;;;;4376193;32;42311;-81
2022/07/13 13:59:11;;;;;;;;;;;25.30;90.80;;;;;;4375651;32;42455;-79
2022/07/13 14:01:39;;;;;;;;;;;25.40;91.00;;;;;;4375494;32;43595;-80
2022/07/13 14:04:14;;;;;;;;;;;25.40;90.90;;;;;;4375482;32;44981;-80
2022/07/13 14:06:42;;;;;;;;;;;25.40;90.80;;;;;;4362347;32;44990;-80
2022/07/13 14:09:09;;;;;;;;;;;25.40;90.80;;;;;;4361967;32;42573;-79
2022/07/13 14:11:38;;;;;;;;;;;25.40;90.50;;;;;;4362329;32;43523;-80
2022/07/13 14:14:06;;;;;;;;;;;25.40;90.70;;;;;;4375885;32;43213;-80
2022/07/13 14:16:34;;;;;;;;;;;25.40;90.60;;;;;;4375571;32;42730;-79
2022/07/13 14:19:01;;;;;;;;;;;25.40;90.30;;;;;;4361966;32;43460;-78
2022/07/13 14:21:28;;;;;;;;;;;25.50;90.30;;;;;;4375938;32;44221;-79
2022/07/13 14:23:55;;;;;;;;;;;25.40;90.30;;;;;;4375779;32;43932;-79
2022/07/13 14:26:43;;;;;;;;;;;25.40;90.10;;;;;;4375793;32;42944;-78
2022/07/13 14:29:22;;;;;;;;;;;25.40;90.30;;;;;;4363494;32;43940;-79
2022/07/13 14:31:49;;;;;;;;;;;25.40;90.40;;;;;;4376184;32;20046;-78
2022/07/13 14:34:36;;;;;;;;;;;25.40;90.50;;;;;;4364366;32;44991;-79
2022/07/13 14:37:06;;;;;;;;;;;25.50;90.90;;;;;;4375085;32;43290;-79
2022/07/13 14:39:34;;;;;;;;;;;25.50;91.00;;;;;;4375314;32;42884;-79
2022/07/13 14:42:02;;;;;;;;;;;25.50;91.20;;;;;;4374988;32;43053;-79
2022/07/13 14:44:30;;;;;;;;;;;25.50;91.10;;;;;;4362169;32;43482;-78